createdAt,value
2016-07-09T00:00:08.032Z,971.11
2016-07-09T00:01:08.033Z,971.12
2016-07-09T00:02:08.034Z,971.13
2016-07-09T00:03:08.032Z,971.11
2016-07-09T00:04:08.037Z,971.1
2016-07-09T00:05:08.037Z,971.14
2016-07-09T00:06:08.037Z,971.13
2016-07-09T00:07:08.037Z,971.11
2016-07-09T00:08:08.041Z,971.1
2016-07-09T00:09:08.043Z,971.1
2016-07-09T00:10:08.041Z,971.13
2016-07-09T00:11:08.045Z,971.13
2016-07-09T00:12:08.045Z,971.12
2016-07-09T00:13:08.044Z,971.11
2016-07-09T00:14:08.052Z,971.12
2016-07-09T00:15:08.049Z,971.09
2016-07-09T00:16:08.049Z,971.09
2016-07-09T00:17:08.054Z,971.07
2016-07-09T00:18:08.053Z,971.06
2016-07-09T00:19:08.054Z,971.06
2016-07-09T00:20:08.057Z,971.06
2016-07-09T00:21:08.058Z,971.03
2016-07-09T00:22:08.058Z,971.05
2016-07-09T00:23:08.058Z,971.02
2016-07-09T00:24:08.061Z,971.06
2016-07-09T00:25:08.062Z,971.07
2016-07-09T00:26:08.062Z,971.08
2016-07-09T00:27:08.066Z,971.12
2016-07-09T00:28:08.066Z,971.11
2016-07-09T00:29:08.066Z,971.1
2016-07-09T00:30:08.066Z,971.07
2016-07-09T00:31:08.070Z,971.08
2016-07-09T00:32:08.070Z,971.14
2016-07-09T00:33:08.073Z,971.11
2016-07-09T00:34:08.074Z,971.06
2016-07-09T00:35:08.074Z,971.08
2016-07-09T00:36:08.074Z,971.04
2016-07-09T00:37:08.077Z,971.07
2016-07-09T00:38:08.077Z,971.09
2016-07-09T00:39:08.077Z,971.1
2016-07-09T00:40:08.081Z,971.07
2016-07-09T00:41:08.084Z,971.11
2016-07-09T00:42:08.082Z,971.11
2016-07-09T00:43:08.082Z,971.11
2016-07-09T00:44:08.086Z,971.1
2016-07-09T00:45:08.086Z,971.09
2016-07-09T00:46:08.087Z,971.13
2016-07-09T00:47:08.090Z,971.12
2016-07-09T00:48:08.091Z,971.13
2016-07-09T00:49:08.090Z,971.12
2016-07-09T00:50:08.091Z,971.13
2016-07-09T00:51:08.095Z,971.14
2016-07-09T00:52:08.094Z,971.14
2016-07-09T00:53:08.095Z,971.15
2016-07-09T00:54:08.098Z,971.17
2016-07-09T00:55:08.098Z,971.14
2016-07-09T00:56:08.099Z,971.19
2016-07-09T00:57:08.099Z,971.18
2016-07-09T00:58:08.102Z,971.2
2016-07-09T00:59:08.103Z,971.15
2016-07-09T01:00:08.103Z,971.14
2016-07-09T01:01:08.102Z,971.13
2016-07-09T01:02:08.107Z,971.14
2016-07-09T01:03:08.107Z,971.14
2016-07-09T01:04:08.107Z,971.14
2016-07-09T01:05:08.111Z,971.15
2016-07-09T01:06:08.112Z,971.15
2016-07-09T01:07:08.111Z,971.09
2016-07-09T01:08:08.111Z,971.1
2016-07-09T01:09:08.115Z,971.12
2016-07-09T01:10:08.126Z,971.09
2016-07-09T01:11:08.115Z,971.1
2016-07-09T01:12:08.119Z,971.1
2016-07-09T01:13:08.122Z,971.13
2016-07-09T01:14:08.119Z,971.04
2016-07-09T01:15:08.119Z,971.11
2016-07-09T01:16:08.123Z,971.1
2016-07-09T01:17:08.123Z,971.09
2016-07-09T01:18:08.124Z,971.05
2016-07-09T01:19:08.123Z,971.1
2016-07-09T01:20:08.128Z,971.06
2016-07-09T01:21:08.128Z,971.07
2016-07-09T01:22:08.227Z,971.06
2016-07-09T01:23:08.127Z,971.09
2016-07-09T01:24:08.132Z,971.06
2016-07-09T01:25:08.132Z,971.05
2016-07-09T01:26:08.132Z,971.06
2016-07-09T01:27:08.136Z,971.06
2016-07-09T01:28:08.136Z,971.05
2016-07-09T01:29:08.136Z,971.05
2016-07-09T01:30:08.136Z,971.04
2016-07-09T01:31:08.140Z,971.03
2016-07-09T01:32:08.140Z,971.05
2016-07-09T01:33:08.141Z,971.04
2016-07-09T01:34:08.144Z,971.04
2016-07-09T01:35:08.144Z,971.04
2016-07-09T01:36:08.144Z,971.04
2016-07-09T01:37:08.144Z,971.02
2016-07-09T01:38:08.148Z,970.99
2016-07-09T01:39:08.148Z,970.97
2016-07-09T01:40:08.148Z,970.99
2016-07-09T01:41:08.148Z,971.05
2016-07-09T01:42:08.152Z,971.01
2016-07-09T01:43:08.152Z,970.97
2016-07-09T01:44:08.152Z,971.04
2016-07-09T01:45:08.151Z,970.98
2016-07-09T01:46:08.155Z,970.96
2016-07-09T01:47:08.155Z,970.94
2016-07-09T01:48:08.156Z,970.94
2016-07-09T01:49:08.156Z,970.94
2016-07-09T01:50:08.161Z,970.92
2016-07-09T01:51:08.160Z,970.9
2016-07-09T01:52:08.159Z,970.88
2016-07-09T01:53:08.160Z,970.88
2016-07-09T01:54:08.160Z,970.89
2016-07-09T01:55:08.164Z,970.93
2016-07-09T01:56:08.164Z,970.93
2016-07-09T01:57:08.163Z,970.96
2016-07-09T01:58:08.164Z,970.94
2016-07-09T01:59:08.168Z,970.95
2016-07-09T02:00:08.168Z,970.95
2016-07-09T02:01:08.168Z,970.93
2016-07-09T02:02:08.168Z,970.93
2016-07-09T02:03:08.177Z,970.94
2016-07-09T02:04:08.171Z,971
2016-07-09T02:05:08.173Z,970.94
2016-07-09T02:06:08.172Z,970.98
2016-07-09T02:07:08.177Z,970.99
2016-07-09T02:08:08.177Z,970.97
2016-07-09T02:09:08.176Z,971
2016-07-09T02:10:08.176Z,970.96
2016-07-09T02:11:08.180Z,970.96
2016-07-09T02:12:08.180Z,970.93
2016-07-09T02:13:08.180Z,970.89
2016-07-09T02:14:08.180Z,970.91
2016-07-09T02:15:08.185Z,970.9
2016-07-09T02:16:08.185Z,970.91
2016-07-09T02:17:08.184Z,970.9
2016-07-09T02:18:08.184Z,970.89
2016-07-09T02:19:08.188Z,970.88
2016-07-09T02:20:08.189Z,970.93
2016-07-09T02:21:08.189Z,970.94
2016-07-09T02:22:08.188Z,970.9
2016-07-09T02:23:08.194Z,970.93
2016-07-09T02:24:08.193Z,970.93
2016-07-09T02:25:08.189Z,970.92
2016-07-09T02:26:08.193Z,970.89
2016-07-09T02:27:08.193Z,970.87
2016-07-09T02:28:08.197Z,970.87
2016-07-09T02:29:08.196Z,970.89
2016-07-09T02:30:08.197Z,970.9
2016-07-09T02:31:08.197Z,970.87
2016-07-09T02:32:08.200Z,970.89
2016-07-09T02:33:08.200Z,970.88
2016-07-09T02:34:08.201Z,970.84
2016-07-09T02:35:08.201Z,970.88
2016-07-09T02:36:08.204Z,970.84
2016-07-09T02:37:08.205Z,970.82
2016-07-09T02:38:08.205Z,970.82
2016-07-09T02:39:08.205Z,970.81
2016-07-09T02:40:08.209Z,970.81
2016-07-09T02:41:08.208Z,970.79
2016-07-09T02:42:08.209Z,970.81
2016-07-09T02:43:08.209Z,970.77
2016-07-09T02:44:08.208Z,970.83
2016-07-09T02:45:08.213Z,970.79
2016-07-09T02:46:08.213Z,970.78
2016-07-09T02:47:08.212Z,970.79
2016-07-09T02:48:08.225Z,970.85
2016-07-09T02:49:08.217Z,970.8
2016-07-09T02:50:08.218Z,970.78
2016-07-09T02:51:08.218Z,970.81
2016-07-09T02:52:08.219Z,970.83
2016-07-09T02:53:08.223Z,970.85
2016-07-09T02:54:08.223Z,970.83
2016-07-09T02:55:08.222Z,970.83
2016-07-09T02:56:08.223Z,970.81
2016-07-09T02:57:08.223Z,970.86
2016-07-09T02:58:08.226Z,970.85
2016-07-09T02:59:08.227Z,970.82
2016-07-09T03:00:08.227Z,970.8
2016-07-09T03:01:08.227Z,970.79
2016-07-09T03:02:08.231Z,970.76
2016-07-09T03:03:08.231Z,970.82
2016-07-09T03:04:08.231Z,970.83
2016-07-09T03:05:08.231Z,970.82
2016-07-09T03:06:08.236Z,970.78
2016-07-09T03:07:08.235Z,970.8
2016-07-09T03:08:08.235Z,970.82
2016-07-09T03:09:08.236Z,970.82
2016-07-09T03:10:08.240Z,970.89
2016-07-09T03:11:08.239Z,970.9
2016-07-09T03:12:08.239Z,970.87
2016-07-09T03:13:08.240Z,970.87
2016-07-09T03:14:08.243Z,970.91
2016-07-09T03:15:08.244Z,970.9
2016-07-09T03:16:08.244Z,970.87
2016-07-09T03:17:08.243Z,970.94
2016-07-09T03:18:08.244Z,971.01
2016-07-09T03:19:08.248Z,971.03
2016-07-09T03:20:08.248Z,971.02
2016-07-09T03:21:08.248Z,971.06
2016-07-09T03:22:08.300Z,971.05
2016-07-09T03:23:08.255Z,971.06
2016-07-09T03:24:08.251Z,971.1
2016-07-09T03:25:08.252Z,971.1
2016-07-09T03:26:08.252Z,971.09
2016-07-09T03:27:08.256Z,971.09
2016-07-09T03:28:08.262Z,971.07
2016-07-09T03:29:08.256Z,971.06
2016-07-09T03:30:08.256Z,971.12
2016-07-09T03:31:08.257Z,971.1
2016-07-09T03:32:08.261Z,971.07
2016-07-09T03:33:08.261Z,971.03
2016-07-09T03:34:08.260Z,971.09
2016-07-09T03:35:08.261Z,971.04
2016-07-09T03:36:08.264Z,971.06
2016-07-09T03:37:08.264Z,971.07
2016-07-09T03:38:08.265Z,971.07
2016-07-09T03:39:08.264Z,971.12
2016-07-09T03:40:08.264Z,971.17
2016-07-09T03:41:08.269Z,971.17
2016-07-09T03:42:08.269Z,971.11
2016-07-09T03:43:08.268Z,971.11
2016-07-09T03:44:08.269Z,971.13
2016-07-09T03:45:08.274Z,971.15
2016-07-09T03:46:08.272Z,971.16
2016-07-09T03:47:08.286Z,971.18
2016-07-09T03:48:08.273Z,971.21
2016-07-09T03:49:08.273Z,971.18
2016-07-09T03:50:08.278Z,971.19
2016-07-09T03:51:08.277Z,971.2
2016-07-09T03:52:08.277Z,971.22
2016-07-09T03:53:08.277Z,971.22
2016-07-09T03:54:08.280Z,971.2
2016-07-09T03:55:08.281Z,971.17
2016-07-09T03:56:08.281Z,971.16
2016-07-09T03:57:08.280Z,971.17
2016-07-09T03:58:08.285Z,971.15
2016-07-09T03:59:08.285Z,971.14
2016-07-09T04:00:08.284Z,971.16
2016-07-09T04:01:08.285Z,971.14
2016-07-09T04:02:08.285Z,971.15
2016-07-09T04:03:08.288Z,971.16
2016-07-09T04:04:08.289Z,971.15
2016-07-09T04:05:08.288Z,971.19
2016-07-09T04:06:08.290Z,971.22
2016-07-09T04:07:08.294Z,971.18
2016-07-09T04:08:08.297Z,971.19
2016-07-09T04:09:08.293Z,971.21
2016-07-09T04:10:08.293Z,971.21
2016-07-09T04:11:08.293Z,971.25
2016-07-09T04:12:08.300Z,971.26
2016-07-09T04:13:08.296Z,971.26
2016-07-09T04:14:08.297Z,971.23
2016-07-09T04:15:08.297Z,971.25
2016-07-09T04:16:08.301Z,971.29
2016-07-09T04:17:08.301Z,971.32
2016-07-09T04:18:08.301Z,971.31
2016-07-09T04:19:08.301Z,971.29
2016-07-09T04:20:08.305Z,971.31
2016-07-09T04:21:08.305Z,971.29
2016-07-09T04:22:08.306Z,971.29
2016-07-09T04:23:08.305Z,971.32
2016-07-09T04:24:08.305Z,971.34
2016-07-09T04:25:08.309Z,971.35
2016-07-09T04:26:08.310Z,971.39
2016-07-09T04:27:08.309Z,971.43
2016-07-09T04:28:08.309Z,971.36
2016-07-09T04:29:08.313Z,971.38
2016-07-09T04:30:08.313Z,971.45
2016-07-09T04:31:08.313Z,971.42
2016-07-09T04:32:08.313Z,971.46
2016-07-09T04:33:08.318Z,971.44
2016-07-09T04:34:08.317Z,971.42
2016-07-09T04:35:08.317Z,971.47
2016-07-09T04:36:08.321Z,971.47
2016-07-09T04:37:08.321Z,971.47
2016-07-09T04:38:08.321Z,971.5
2016-07-09T04:39:08.321Z,971.5
2016-07-09T04:40:08.325Z,971.5
2016-07-09T04:41:08.325Z,971.49
2016-07-09T04:42:08.325Z,971.49
2016-07-09T04:43:08.329Z,971.51
2016-07-09T04:44:08.330Z,971.5
2016-07-09T04:45:08.334Z,971.54
2016-07-09T04:46:08.333Z,971.53
2016-07-09T04:47:08.334Z,971.53
2016-07-09T04:48:08.334Z,971.56
2016-07-09T04:49:08.337Z,971.54
2016-07-09T04:50:08.338Z,971.58
2016-07-09T04:51:08.338Z,971.58
2016-07-09T04:52:08.342Z,971.6
2016-07-09T04:53:08.342Z,971.59
2016-07-09T04:54:08.342Z,971.57
2016-07-09T04:55:08.346Z,971.57
2016-07-09T04:56:08.346Z,971.58
2016-07-09T04:57:08.351Z,971.55
2016-07-09T04:58:08.353Z,971.53
2016-07-09T04:59:08.350Z,971.55
2016-07-09T05:00:08.454Z,971.53
2016-07-09T05:01:08.354Z,971.55
2016-07-09T05:02:08.355Z,971.61
2016-07-09T05:03:08.358Z,971.58
2016-07-09T05:04:08.358Z,971.62
2016-07-09T05:05:08.359Z,971.64
2016-07-09T05:06:08.363Z,971.65
2016-07-09T05:07:08.363Z,971.65
2016-07-09T05:08:08.367Z,971.64
2016-07-09T05:09:08.367Z,971.66
2016-07-09T05:10:08.367Z,971.66
2016-07-09T05:11:08.371Z,971.69
2016-07-09T05:12:08.371Z,971.68
2016-07-09T05:13:08.370Z,971.7
2016-07-09T05:14:08.375Z,971.7
2016-07-09T05:15:08.375Z,971.75
2016-07-09T05:16:08.379Z,971.75
2016-07-09T05:17:08.379Z,971.77
2016-07-09T05:18:08.383Z,971.79
2016-07-09T05:19:08.383Z,971.79
2016-07-09T05:20:08.387Z,971.79
2016-07-09T05:21:08.387Z,971.79
2016-07-09T05:22:08.391Z,971.76
2016-07-09T05:23:08.391Z,971.78
2016-07-09T05:24:08.395Z,971.79
2016-07-09T05:25:08.400Z,971.81
2016-07-09T05:26:08.399Z,971.82
2016-07-09T05:27:08.403Z,971.85
2016-07-09T05:28:08.403Z,971.88
2016-07-09T05:29:08.407Z,971.89
2016-07-09T05:30:08.407Z,971.91
2016-07-09T05:31:08.410Z,971.89
2016-07-09T05:32:08.419Z,971.93
2016-07-09T05:33:08.415Z,971.91
2016-07-09T05:34:08.419Z,971.93
2016-07-09T05:35:08.420Z,971.9
2016-07-09T05:36:08.422Z,971.94
2016-07-09T05:37:08.423Z,971.94
2016-07-09T05:38:08.427Z,971.95
2016-07-09T05:39:08.431Z,971.98
2016-07-09T05:40:08.431Z,971.97
2016-07-09T05:41:08.435Z,972.02
2016-07-09T05:42:08.436Z,971.96
2016-07-09T05:43:08.439Z,972.02
2016-07-09T05:44:08.443Z,972.01
2016-07-09T05:45:08.444Z,972
2016-07-09T05:46:08.447Z,972.01
2016-07-09T05:47:08.451Z,971.99
2016-07-09T05:48:08.452Z,972.02
2016-07-09T05:49:08.456Z,972.01
2016-07-09T05:50:08.456Z,972.02
2016-07-09T05:51:08.460Z,972.09
2016-07-09T05:52:08.464Z,972.02
2016-07-09T05:53:08.464Z,972.06
2016-07-09T05:54:08.468Z,972.04
2016-07-09T05:55:08.472Z,972.07
2016-07-09T05:56:08.472Z,972.03
2016-07-09T05:57:08.476Z,972.04
2016-07-09T05:58:08.479Z,972.07
2016-07-09T05:59:08.480Z,972.06
2016-07-09T06:00:08.485Z,972.06
2016-07-09T06:01:08.489Z,972.06
2016-07-09T06:02:08.492Z,972.06
2016-07-09T06:03:08.492Z,972.06
2016-07-09T06:04:08.496Z,972.07
2016-07-09T06:05:08.500Z,972.1
2016-07-09T06:06:08.500Z,972.09
2016-07-09T06:07:08.503Z,972.09
2016-07-09T06:08:08.508Z,972.08
2016-07-09T06:09:08.513Z,972.1
2016-07-09T06:10:08.512Z,972.09
2016-07-09T06:11:08.517Z,972.14
2016-07-09T06:12:08.520Z,972.1
2016-07-09T06:13:08.525Z,972.14
2016-07-09T06:14:08.525Z,972.13
2016-07-09T06:15:08.528Z,972.15
2016-07-09T06:16:08.532Z,972.16
2016-07-09T06:17:08.537Z,972.15
2016-07-09T06:18:08.541Z,972.14
2016-07-09T06:19:08.544Z,972.17
2016-07-09T06:20:08.545Z,972.17
2016-07-09T06:21:08.550Z,972.14
2016-07-09T06:22:08.653Z,972.15
2016-07-09T06:23:08.557Z,972.14
2016-07-09T06:24:08.561Z,972.15
2016-07-09T06:25:08.561Z,972.12
2016-07-09T06:26:08.565Z,972.13
2016-07-09T06:27:08.569Z,972.07
2016-07-09T06:28:08.569Z,972.12
2016-07-09T06:29:08.573Z,972.17
2016-07-09T06:30:08.578Z,972.2
2016-07-09T06:31:08.582Z,972.19
2016-07-09T06:32:08.585Z,972.27
2016-07-09T06:33:08.590Z,972.21
2016-07-09T06:34:08.599Z,972.26
2016-07-09T06:35:08.593Z,972.25
2016-07-09T06:36:08.597Z,972.24
2016-07-09T06:37:08.601Z,972.29
2016-07-09T06:38:08.605Z,972.24
2016-07-09T06:39:08.610Z,972.28
2016-07-09T06:40:08.610Z,972.3
2016-07-09T06:41:08.613Z,972.29
2016-07-09T06:42:08.618Z,972.31
2016-07-09T06:43:08.622Z,972.28
2016-07-09T06:44:08.626Z,972.26
2016-07-09T06:45:08.630Z,972.3
2016-07-09T06:46:08.630Z,972.28
2016-07-09T06:47:08.634Z,972.28
2016-07-09T06:48:08.638Z,972.32
2016-07-09T06:49:08.642Z,972.31
2016-07-09T06:50:08.645Z,972.27
2016-07-09T06:51:08.650Z,972.31
2016-07-09T06:52:08.654Z,972.29
2016-07-09T06:53:08.657Z,972.28
2016-07-09T06:54:08.658Z,972.29
2016-07-09T06:55:08.662Z,972.3
2016-07-09T06:56:08.670Z,972.28
2016-07-09T06:57:08.671Z,972.3
2016-07-09T06:58:08.674Z,972.31
2016-07-09T06:59:08.678Z,972.33
2016-07-09T07:00:08.683Z,972.32
2016-07-09T07:01:08.683Z,972.33
2016-07-09T07:02:08.686Z,972.31
2016-07-09T07:03:08.691Z,972.33
2016-07-09T07:04:08.695Z,972.32
2016-07-09T07:05:08.699Z,972.33
2016-07-09T07:06:08.703Z,972.29
2016-07-09T07:07:08.706Z,972.31
2016-07-09T07:08:08.711Z,972.31
2016-07-09T07:09:08.720Z,972.3
2016-07-09T07:10:08.723Z,972.3
2016-07-09T07:11:08.722Z,972.27
2016-07-09T07:12:08.723Z,972.28
2016-07-09T07:13:08.727Z,972.27
2016-07-09T07:14:08.731Z,972.24
2016-07-09T07:15:08.735Z,972.24
2016-07-09T07:16:08.738Z,972.27
2016-07-09T07:17:08.743Z,972.25
2016-07-09T07:18:08.747Z,972.25
2016-07-09T07:19:08.751Z,972.27
2016-07-09T07:20:08.755Z,972.25
2016-07-09T07:21:08.756Z,972.22
2016-07-09T07:22:08.760Z,972.27
2016-07-09T07:23:08.768Z,972.27
2016-07-09T07:24:08.767Z,972.31
2016-07-09T07:25:08.772Z,972.29
2016-07-09T07:26:08.775Z,972.29
2016-07-09T07:27:08.780Z,972.27
2016-07-09T07:28:08.784Z,972.27
2016-07-09T07:29:08.787Z,972.26
2016-07-09T07:30:08.792Z,972.29
2016-07-09T07:31:08.792Z,972.28
2016-07-09T07:32:08.800Z,972.28
2016-07-09T07:33:08.800Z,972.28
2016-07-09T07:34:08.803Z,972.28
2016-07-09T07:35:08.808Z,972.23
2016-07-09T07:36:08.812Z,972.26
2016-07-09T07:37:08.816Z,972.27
2016-07-09T07:38:08.820Z,972.27
2016-07-09T07:39:08.824Z,972.26
2016-07-09T07:40:08.828Z,972.23
2016-07-09T07:41:08.832Z,972.28
2016-07-09T07:42:08.836Z,972.26
2016-07-09T07:43:08.840Z,972.28
2016-07-09T07:44:08.845Z,972.25
2016-07-09T07:45:08.843Z,972.27
2016-07-09T07:46:08.848Z,972.23
2016-07-09T07:47:08.853Z,972.25
2016-07-09T07:48:08.856Z,972.25
2016-07-09T07:49:08.860Z,972.28
2016-07-09T07:50:08.865Z,972.3
2016-07-09T07:51:08.868Z,972.3
2016-07-09T07:52:08.873Z,972.3
2016-07-09T07:53:08.877Z,972.29
2016-07-09T07:54:08.880Z,972.28
2016-07-09T07:55:08.884Z,972.32
2016-07-09T07:56:08.888Z,972.31
2016-07-09T07:57:08.892Z,972.32
2016-07-09T07:58:08.896Z,972.34
2016-07-09T07:59:08.901Z,972.34
2016-07-09T08:00:08.904Z,972.35
2016-07-09T08:01:08.909Z,972.4
2016-07-09T08:02:08.912Z,972.37
2016-07-09T08:03:08.916Z,972.37
2016-07-09T08:04:08.921Z,972.37
2016-07-09T08:05:08.924Z,972.34
2016-07-09T08:06:08.928Z,972.34
2016-07-09T08:07:08.933Z,972.34
2016-07-09T08:08:08.937Z,972.35
2016-07-09T08:09:08.941Z,972.34
2016-07-09T08:10:08.949Z,972.3
2016-07-09T08:11:08.950Z,972.28
2016-07-09T08:12:08.957Z,972.38
2016-07-09T08:13:08.961Z,972.32
2016-07-09T08:14:08.966Z,972.31
2016-07-09T08:15:08.970Z,972.35
2016-07-09T08:16:08.973Z,972.35
2016-07-09T08:17:08.978Z,972.38
2016-07-09T08:18:08.982Z,972.35
2016-07-09T08:19:08.985Z,972.33
2016-07-09T08:20:08.994Z,972.33
2016-07-09T08:21:08.998Z,972.34
2016-07-09T08:22:09.049Z,972.36
2016-07-09T08:23:09.006Z,972.38
2016-07-09T08:24:09.010Z,972.37
2016-07-09T08:25:09.013Z,972.39
2016-07-09T08:26:09.021Z,972.41
2016-07-09T08:27:09.026Z,972.36
2016-07-09T08:28:09.029Z,972.4
2016-07-09T08:29:09.034Z,972.37
2016-07-09T08:30:09.042Z,972.38
2016-07-09T08:31:09.046Z,972.35
2016-07-09T08:32:09.049Z,972.38
2016-07-09T08:33:09.054Z,972.42
2016-07-09T08:34:09.062Z,972.36
2016-07-09T08:35:09.066Z,972.37
2016-07-09T08:36:09.069Z,972.42
2016-07-09T08:37:09.074Z,972.43
2016-07-09T08:38:09.082Z,972.43
2016-07-09T08:39:09.085Z,972.45
2016-07-09T08:40:09.090Z,972.46
2016-07-09T08:41:09.099Z,972.44
2016-07-09T08:42:09.102Z,972.43
2016-07-09T08:43:09.110Z,972.41
2016-07-09T08:44:09.114Z,972.4
2016-07-09T08:45:09.118Z,972.41
2016-07-09T08:46:09.125Z,972.43
2016-07-09T08:47:09.130Z,972.4
2016-07-09T08:48:09.139Z,972.39
2016-07-09T08:49:09.142Z,972.36
2016-07-09T08:50:09.150Z,972.4
2016-07-09T08:51:09.154Z,972.37
2016-07-09T08:52:09.162Z,972.36
2016-07-09T08:53:09.166Z,972.34
2016-07-09T08:54:09.175Z,972.34
2016-07-09T08:55:09.179Z,972.32
2016-07-09T08:56:09.186Z,972.34
2016-07-09T08:57:09.190Z,972.33
2016-07-09T08:58:09.198Z,972.3
2016-07-09T08:59:09.202Z,972.31
2016-07-09T09:00:09.209Z,972.31
2016-07-09T09:01:09.213Z,972.32
2016-07-09T09:02:09.222Z,972.39
2016-07-09T09:03:09.227Z,972.35
2016-07-09T09:04:09.234Z,972.43
2016-07-09T09:05:09.238Z,972.32
2016-07-09T09:06:09.245Z,972.37
2016-07-09T09:07:09.252Z,972.42
2016-07-09T09:08:09.259Z,972.42
2016-07-09T09:09:09.262Z,972.43
2016-07-09T09:10:09.271Z,972.41
2016-07-09T09:11:09.274Z,972.41
2016-07-09T09:12:09.283Z,972.34
2016-07-09T09:13:09.286Z,972.31
2016-07-09T09:14:09.295Z,972.31
2016-07-09T09:15:09.302Z,972.29
2016-07-09T09:16:09.307Z,972.27
2016-07-09T09:17:09.314Z,972.22
2016-07-09T09:18:09.319Z,972.2
2016-07-09T09:19:09.327Z,972.21
2016-07-09T09:20:09.335Z,972.22
2016-07-09T09:21:09.339Z,972.22
2016-07-09T09:22:09.447Z,972.17
2016-07-09T09:23:09.355Z,972.21
2016-07-09T09:24:09.359Z,972.15
2016-07-09T09:25:09.371Z,972.15
2016-07-09T09:26:09.370Z,972.16
2016-07-09T09:27:09.384Z,972.16
2016-07-09T09:28:09.387Z,972.18
2016-07-09T09:29:09.390Z,972.18
2016-07-09T09:30:09.399Z,972.14
2016-07-09T09:31:09.407Z,972.19
2016-07-09T09:32:09.411Z,972.14
2016-07-09T09:33:09.419Z,972.15
2016-07-09T09:34:09.426Z,972.16
2016-07-09T09:35:09.431Z,972.16
2016-07-09T09:36:09.438Z,972.13
2016-07-09T09:37:09.443Z,972.17
2016-07-09T09:38:09.451Z,972.15
2016-07-09T09:39:09.455Z,972.14
2016-07-09T09:40:09.462Z,972.16
2016-07-09T09:41:09.470Z,972.15
2016-07-09T09:42:09.474Z,972.17
2016-07-09T09:43:09.483Z,972.13
2016-07-09T09:44:09.487Z,972.14
2016-07-09T09:45:09.495Z,972.15
2016-07-09T09:46:09.498Z,972.12
2016-07-09T09:47:09.507Z,972.16
2016-07-09T09:48:09.515Z,972.11
2016-07-09T09:49:09.519Z,972.13
2016-07-09T09:50:09.527Z,972.14
2016-07-09T09:51:09.531Z,972.11
2016-07-09T09:52:09.539Z,972.1
2016-07-09T09:53:09.543Z,972.08
2016-07-09T09:54:09.552Z,972.06
2016-07-09T09:55:09.560Z,972.07
2016-07-09T09:56:09.563Z,972.04
2016-07-09T09:57:09.571Z,972
2016-07-09T09:58:09.575Z,972
2016-07-09T09:59:09.583Z,972.01
2016-07-09T10:00:09.587Z,971.99
2016-07-09T10:01:09.595Z,972.01
2016-07-09T10:02:09.603Z,972.02
2016-07-09T10:03:09.607Z,971.99
2016-07-09T10:04:09.615Z,971.99
2016-07-09T10:05:09.619Z,971.97
2016-07-09T10:06:09.626Z,971.94
2016-07-09T10:07:09.635Z,971.95
2016-07-09T10:08:09.639Z,971.98
2016-07-09T10:09:09.648Z,971.97
2016-07-09T10:10:09.652Z,971.92
2016-07-09T10:11:09.655Z,971.85
2016-07-09T10:12:09.663Z,971.84
2016-07-09T10:13:09.671Z,971.88
2016-07-09T10:14:09.675Z,971.88
2016-07-09T10:15:09.683Z,971.87
2016-07-09T10:16:09.687Z,971.96
2016-07-09T10:17:09.694Z,971.93
2016-07-09T10:18:09.704Z,971.97
2016-07-09T10:19:09.707Z,971.93
2016-07-09T10:20:09.715Z,971.94
2016-07-09T10:21:09.720Z,971.93
2016-07-09T10:22:09.724Z,971.92
2016-07-09T10:23:09.731Z,971.92
2016-07-09T10:24:09.740Z,971.93
2016-07-09T10:25:09.744Z,971.91
2016-07-09T10:26:09.751Z,971.89
2016-07-09T10:27:09.756Z,971.84
2016-07-09T10:28:09.764Z,971.84
2016-07-09T10:29:09.772Z,971.83
2016-07-09T10:30:09.776Z,971.88
2016-07-09T10:31:09.780Z,971.88
2016-07-09T10:32:09.788Z,971.9
2016-07-09T10:33:09.791Z,971.88
2016-07-09T10:34:09.799Z,971.87
2016-07-09T10:35:09.805Z,971.87
2016-07-09T10:36:09.811Z,971.89
2016-07-09T10:37:09.816Z,971.89
2016-07-09T10:38:09.824Z,971.91
2016-07-09T10:39:09.831Z,971.87
2016-07-09T10:40:09.837Z,971.87
2016-07-09T10:41:09.840Z,971.87
2016-07-09T10:42:09.848Z,971.86
2016-07-09T10:43:09.856Z,971.88
2016-07-09T10:44:09.860Z,971.85
2016-07-09T10:45:09.864Z,971.86
2016-07-09T10:46:09.873Z,971.84
2016-07-09T10:47:09.880Z,971.85
2016-07-09T10:48:09.884Z,971.86
2016-07-09T10:49:09.888Z,971.86
2016-07-09T10:50:09.896Z,971.88
2016-07-09T10:51:09.901Z,971.84
2016-07-09T10:52:09.913Z,971.8
2016-07-09T10:53:09.911Z,971.86
2016-07-09T10:54:09.920Z,971.85
2016-07-09T10:55:09.924Z,971.85
2016-07-09T10:56:09.932Z,971.83
2016-07-09T10:57:09.936Z,971.85
2016-07-09T10:58:09.944Z,971.87
2016-07-09T10:59:09.949Z,971.82
2016-07-09T11:00:09.953Z,971.85
2016-07-09T11:01:09.961Z,971.83
2016-07-09T11:02:09.968Z,971.78
2016-07-09T11:03:09.973Z,971.79
2016-07-09T11:04:09.980Z,971.79
2016-07-09T11:05:09.985Z,971.77
2016-07-09T11:06:09.989Z,971.79
2016-07-09T11:07:09.997Z,971.78
2016-07-09T11:08:10.002Z,971.78
2016-07-09T11:09:10.008Z,971.79
2016-07-09T11:10:10.012Z,971.78
2016-07-09T11:11:10.022Z,971.77
2016-07-09T11:12:10.026Z,971.81
2016-07-09T11:13:10.029Z,971.81
2016-07-09T11:14:10.037Z,971.82
2016-07-09T11:15:10.042Z,971.78
2016-07-09T11:16:10.049Z,971.83
2016-07-09T11:17:10.054Z,971.79
2016-07-09T11:18:10.062Z,971.8
2016-07-09T11:19:10.065Z,971.78
2016-07-09T11:20:10.074Z,971.79
2016-07-09T11:21:10.078Z,971.81
2016-07-09T11:22:10.134Z,971.81
2016-07-09T11:23:10.090Z,971.82
2016-07-09T11:24:10.094Z,971.8
2016-07-09T11:25:10.102Z,971.76
2016-07-09T11:26:10.106Z,971.75
2016-07-09T11:27:10.113Z,971.77
2016-07-09T11:28:10.118Z,971.76
2016-07-09T11:29:10.122Z,971.75
2016-07-09T11:30:10.130Z,971.74
2016-07-09T11:31:10.135Z,971.77
2016-07-09T11:32:10.138Z,971.75
2016-07-09T11:33:10.146Z,971.71
2016-07-09T11:34:10.155Z,971.7
2016-07-09T11:35:10.158Z,971.66
2016-07-09T11:36:10.162Z,971.67
2016-07-09T11:37:10.171Z,971.7
2016-07-09T11:38:10.180Z,971.67
2016-07-09T11:39:10.178Z,971.64
2016-07-09T11:40:10.187Z,971.66
2016-07-09T11:41:10.191Z,971.6
2016-07-09T11:42:10.198Z,971.59
2016-07-09T11:43:10.202Z,971.59
2016-07-09T11:44:10.211Z,971.6
2016-07-09T11:45:10.214Z,971.56
2016-07-09T11:46:10.219Z,971.54
2016-07-09T11:47:10.227Z,971.55
2016-07-09T11:48:10.231Z,971.53
2016-07-09T11:49:10.235Z,971.54
2016-07-09T11:50:10.243Z,971.5
2016-07-09T11:51:10.247Z,971.5
2016-07-09T11:52:10.255Z,971.52
2016-07-09T11:53:10.264Z,971.5
2016-07-09T11:54:10.263Z,971.47
2016-07-09T11:55:10.271Z,971.49
2016-07-09T11:56:10.275Z,971.46
2016-07-09T11:57:10.279Z,971.42
2016-07-09T11:58:10.288Z,971.42
2016-07-09T11:59:10.291Z,971.4
2016-07-09T12:00:10.299Z,971.41
2016-07-09T12:01:10.303Z,971.43
2016-07-09T12:02:10.307Z,971.36
2016-07-09T12:03:10.315Z,971.36
2016-07-09T12:04:10.319Z,971.36
2016-07-09T12:05:10.324Z,971.37
2016-07-09T12:06:10.331Z,971.36
2016-07-09T12:07:10.336Z,971.37
2016-07-09T12:08:10.340Z,971.29
2016-07-09T12:09:10.343Z,971.35
2016-07-09T12:10:10.352Z,971.29
2016-07-09T12:11:10.356Z,971.3
2016-07-09T12:12:10.359Z,971.29
2016-07-09T12:13:10.368Z,971.25
2016-07-09T12:14:10.372Z,971.24
2016-07-09T12:15:10.380Z,971.26
2016-07-09T12:16:10.384Z,971.25
2016-07-09T12:17:10.388Z,971.22
2016-07-09T12:18:10.392Z,971.21
2016-07-09T12:19:10.400Z,971.16
2016-07-09T12:20:10.404Z,971.19
2016-07-09T12:21:10.407Z,971.2
2016-07-09T12:22:10.417Z,971.18
2016-07-09T12:23:10.421Z,971.17
2016-07-09T12:24:10.428Z,971.18
2016-07-09T12:25:10.432Z,971.2
2016-07-09T12:26:10.436Z,971.21
2016-07-09T12:27:10.440Z,971.22
2016-07-09T12:28:10.444Z,971.22
2016-07-09T12:29:10.448Z,971.22
2016-07-09T12:30:10.457Z,971.15
2016-07-09T12:31:10.460Z,971.11